Time;durP1;ratioP1;P1;durP2;ratioP2;P2;SDS_P1;SDS_P2;PMS_P1;PMS_P2;Temp;Humidity;BMP_temperature;BMP_pressure;BME280_temperature;BME280_humidity;BME280_pressure;Samples;Min_cycle;Max_cycle;Signal;HPM_P1;HPM_P2
2021/04/24 00:00:28;;;;;;;3.17;1.60;;;10.00;61.40;;;;;;4952714;28;20452;-76
2021/04/24 00:02:54;;;;;;;3.67;1.60;;;10.00;61.50;;;;;;4954694;28;20034;-76
2021/04/24 00:05:24;;;;;;;4.38;1.58;;;10.00;61.60;;;;;;4953985;28;20030;-76
2021/04/24 00:07:58;;;;;;;4.93;1.67;;;10.00;61.80;;;;;;4952690;28;20325;-76
2021/04/24 00:10:24;;;;;;;4.00;1.73;;;9.90;61.70;;;;;;4952501;29;20380;-77
2021/04/24 00:12:50;;;;;;;4.03;1.60;;;9.80;61.80;;;;;;4953302;28;20125;-76
2021/04/24 00:15:17;;;;;;;5.28;1.83;;;9.80;61.90;;;;;;4952751;29;20485;-77
2021/04/24 00:17:43;;;;;;;3.05;1.33;;;9.80;61.90;;;;;;4954302;28;20023;-77
2021/04/24 00:20:11;;;;;;;7.03;2.38;;;9.80;62.00;;;;;;4953693;28;20031;-76
2021/04/24 00:22:37;;;;;;;5.95;1.85;;;9.80;62.10;;;;;;4954473;28;20114;-76
2021/04/24 00:25:04;;;;;;;5.05;1.45;;;9.70;62.10;;;;;;4952950;29;20125;-76
2021/04/24 00:27:30;;;;;;;4.43;1.67;;;9.70;62.20;;;;;;4953333;28;20023;-76
2021/04/24 00:29:55;;;;;;;5.30;1.65;;;9.70;62.30;;;;;;4954087;28;20046;-76
2021/04/24 00:32:21;;;;;;;3.30;1.27;;;9.70;62.40;;;;;;4953418;28;20380;-76
2021/04/24 00:34:46;;;;;;;3.85;1.40;;;9.70;62.40;;;;;;4954301;28;20035;-76
2021/04/24 00:37:12;;;;;;;4.00;1.58;;;9.70;62.40;;;;;;4953397;28;20064;-76
2021/04/24 00:39:38;;;;;;;3.72;1.60;;;9.70;62.50;;;;;;4953952;28;20408;-77
2021/04/24 00:42:04;;;;;;;4.70;1.85;;;9.60;62.50;;;;;;4953950;28;20023;-76
2021/04/24 00:44:30;;;;;;;3.85;1.48;;;9.60;62.60;;;;;;4951721;28;20052;-76
2021/04/24 00:46:55;;;;;;;3.58;1.15;;;9.60;62.70;;;;;;4952753;29;20023;-76
2021/04/24 00:49:21;;;;;;;5.00;1.73;;;9.60;62.70;;;;;;4953228;28;20034;-75
2021/04/24 00:51:47;;;;;;;5.28;1.60;;;9.60;63.40;;;;;;4953582;28;20034;-75
2021/04/24 00:54:13;;;;;;;5.28;1.50;;;9.60;63.50;;;;;;4953232;28;20070;-75
2021/04/24 00:56:38;;;;;;;3.63;1.50;;;9.60;62.90;;;;;;4953684;28;20083;-76
2021/04/24 00:59:04;;;;;;;3.92;1.35;;;9.60;63.00;;;;;;4953765;28;20369;-76
2021/04/24 01:01:30;;;;;;;5.65;1.67;;;9.50;63.10;;;;;;4953224;28;20027;-76
2021/04/24 01:03:56;;;;;;;12.55;1.88;;;9.50;63.10;;;;;;4953380;28;20076;-76
2021/04/24 01:06:21;;;;;;;4.00;1.75;;;9.50;63.20;;;;;;4951952;28;20047;-76
2021/04/24 01:08:47;;;;;;;4.13;1.60;;;9.50;63.20;;;;;;4952405;28;20039;-76
2021/04/24 01:11:13;;;;;;;3.22;1.50;;;9.50;63.30;;;;;;4951897;29;20061;-76
2021/04/24 01:13:38;;;;;;;5.80;1.48;;;9.50;63.30;;;;;;4953600;28;20086;-76
2021/04/24 01:16:04;;;;;;;4.97;1.67;;;9.50;63.40;;;;;;4953474;28;20063;-76
2021/04/24 01:18:30;;;;;;;4.38;1.88;;;9.50;63.40;;;;;;4953254;28;20036;-76
2021/04/24 01:20:57;;;;;;;8.20;1.85;;;9.50;63.50;;;;;;4957615;28;20035;-76
2021/04/24 01:23:23;;;;;;;5.05;1.52;;;9.40;63.50;;;;;;4956707;28;20027;-76
2021/04/24 01:25:49;;;;;;;6.50;1.58;;;9.40;63.70;;;;;;4955954;29;20372;-76
2021/04/24 01:28:15;;;;;;;4.05;1.20;;;9.40;63.70;;;;;;4955298;29;20475;-76
2021/04/24 01:30:44;;;;;;;5.22;1.65;;;9.30;63.70;;;;;;4957216;28;20111;-76
2021/04/24 01:33:12;;;;;;;4.53;1.77;;;9.30;63.80;;;;;;4957237;28;20023;-75
2021/04/24 01:35:40;;;;;;;7.05;2.25;;;9.30;63.80;;;;;;4957213;28;20031;-75
2021/04/24 01:38:07;;;;;;;6.32;1.50;;;9.30;64.00;;;;;;4956216;29;20057;-76
2021/04/24 01:40:33;;;;;;;2.95;1.20;;;9.30;64.00;;;;;;4957374;28;20733;-76
2021/04/24 01:42:59;;;;;;;5.95;1.83;;;9.20;64.00;;;;;;4957950;28;20027;-76
2021/04/24 01:45:26;;;;;;;8.05;1.70;;;9.20;64.10;;;;;;4957149;28;20027;-77
2021/04/24 01:47:51;;;;;;;4.10;1.60;;;9.20;64.20;;;;;;4958860;28;20023;-76
2021/04/24 01:50:24;;;;;;;5.93;1.83;;;9.20;64.20;;;;;;4956316;28;20042;-76
2021/04/24 01:52:51;;;;;;;4.05;1.80;;;9.20;64.30;;;;;;4956614;29;20034;-76
2021/04/24 01:55:20;;;;;;;5.05;1.73;;;9.20;64.40;;;;;;4956603;28;20023;-75
2021/04/24 01:57:48;;;;;;;6.30;1.92;;;9.20;64.40;;;;;;4955454;28;20055;-76
2021/04/24 02:00:24;;;;;;;5.43;1.67;;;9.10;64.40;;;;;;4955380;28;20431;-76
2021/04/24 02:02:51;;;;;;;6.05;1.70;;;9.10;64.50;;;;;;4957192;29;20482;-76
2021/04/24 02:05:18;;;;;;;6.18;1.80;;;9.10;64.60;;;;;;4955929;28;20035;-76
2021/04/24 02:08:12;;;;;;;5.28;1.67;;;9.10;64.70;;;;;;4955326;29;20042;-75
2021/04/24 02:10:40;;;;;;;5.07;1.92;;;9.10;64.70;;;;;;4955611;28;20050;-76
2021/04/24 02:13:13;;;;;;;5.72;1.85;;;9.10;64.70;;;;;;4955156;29;20432;-76
2021/04/24 02:15:40;;;;;;;7.28;2.20;;;9.10;64.80;;;;;;4955954;28;20106;-76
2021/04/24 02:18:06;;;;;;;3.78;1.48;;;9.10;64.80;;;;;;4955089;29;20049;-77
2021/04/24 02:20:37;;;;;;;6.57;2.25;;;9.00;64.90;;;;;;4954675;29;20035;-76
2021/04/24 02:23:04;;;;;;;3.47;1.65;;;9.00;64.90;;;;;;4956434;28;20024;-75
2021/04/24 02:25:30;;;;;;;4.00;1.40;;;9.00;64.90;;;;;;4955435;28;20447;-76
2021/04/24 02:27:56;;;;;;;4.00;1.50;;;9.00;64.90;;;;;;4954972;29;20071;-76
2021/04/24 02:30:23;;;;;;;7.35;2.35;;;9.00;65.00;;;;;;4953670;28;20035;-76
2021/04/24 02:32:49;;;;;;;6.18;2.40;;;9.00;65.00;;;;;;4955899;28;20111;-76
2021/04/24 02:35:39;;;;;;;8.00;1.95;;;9.00;65.10;;;;;;4954667;29;20034;-76
2021/04/24 02:38:05;;;;;;;7.22;1.70;;;9.00;65.20;;;;;;4956078;28;20058;-76
2021/04/24 02:40:31;;;;;;;5.72;2.17;;;9.00;65.20;;;;;;4954085;28;20070;-76
2021/04/24 02:42:56;;;;;;;5.40;1.75;;;9.00;65.20;;;;;;4955940;28;20031;-76
2021/04/24 02:45:22;;;;;;;4.93;1.90;;;8.90;65.30;;;;;;4955322;28;20074;-75
2021/04/24 02:47:48;;;;;;;6.38;1.80;;;8.90;65.30;;;;;;4954593;29;20059;-76
2021/04/24 02:50:18;;;;;;;3.97;1.65;;;8.90;65.40;;;;;;4954515;28;20066;-76
2021/04/24 02:52:44;;;;;;;3.58;1.40;;;8.90;65.50;;;;;;4956015;28;20043;-76
2021/04/24 02:55:11;;;;;;;4.85;1.85;;;8.90;65.60;;;;;;4954485;29;20114;-76
2021/04/24 02:57:37;;;;;;;7.10;1.85;;;8.90;65.60;;;;;;4954475;28;20185;-76
2021/04/24 03:00:06;;;;;;;3.05;1.73;;;8.90;65.70;;;;;;4955758;28;20106;-76
2021/04/24 03:02:32;;;;;;;5.93;1.80;;;8.90;65.80;;;;;;4954983;28;20027;-76
2021/04/24 03:04:58;;;;;;;5.00;1.58;;;8.90;65.80;;;;;;4955815;28;20027;-76
2021/04/24 03:07:24;;;;;;;3.10;1.40;;;8.80;65.80;;;;;;4953556;29;20436;-76
2021/04/24 03:09:49;;;;;;;4.93;1.73;;;8.80;65.80;;;;;;4954128;28;20471;-77
2021/04/24 03:12:15;;;;;;;3.80;1.77;;;8.80;65.90;;;;;;4955093;28;20078;-76
2021/04/24 03:14:41;;;;;;;4.93;1.60;;;8.80;66.00;;;;;;4954520;28;20027;-75
2021/04/24 03:17:06;;;;;;;5.68;2.00;;;8.80;66.10;;;;;;4955250;28;20024;-76
2021/04/24 03:19:32;;;;;;;3.22;1.77;;;8.80;66.10;;;;;;4954423;28;20473;-77
2021/04/24 03:21:58;;;;;;;4.25;1.75;;;8.70;66.10;;;;;;4955135;28;20027;-76
2021/04/24 03:24:23;;;;;;;5.70;1.60;;;8.70;66.20;;;;;;4953417;29;20102;-76
2021/04/24 03:26:49;;;;;;;5.10;1.77;;;8.70;66.30;;;;;;4955237;28;20054;-76
2021/04/24 03:29:14;;;;;;;5.20;2.08;;;8.70;66.30;;;;;;4954859;28;20035;-76
2021/04/24 03:31:40;;;;;;;5.75;1.98;;;8.70;66.40;;;;;;4954423;28;20663;-76
2021/04/24 03:34:06;;;;;;;4.53;1.63;;;8.70;66.50;;;;;;4955080;28;20055;-76
2021/04/24 03:36:31;;;;;;;9.52;2.03;;;8.70;66.50;;;;;;4953006;29;20420;-76
2021/04/24 03:38:57;;;;;;;4.88;1.77;;;8.70;66.50;;;;;;4954860;28;20155;-76
2021/04/24 03:41:23;;;;;;;4.32;1.60;;;8.70;66.60;;;;;;4953523;28;20371;-75
2021/04/24 03:43:48;;;;;;;3.95;1.55;;;8.60;66.60;;;;;;4954490;28;20050;-76
2021/04/24 03:46:14;;;;;;;4.57;1.77;;;8.70;66.70;;;;;;4953839;28;20031;-76
2021/04/24 03:48:40;;;;;;;5.32;1.95;;;8.70;66.70;;;;;;4954525;28;20038;-76
2021/04/24 03:51:06;;;;;;;3.35;1.73;;;8.70;66.80;;;;;;4955450;28;20570;-76
2021/04/24 03:53:31;;;;;;;4.18;1.40;;;8.70;66.80;;;;;;4954492;28;20407;-76
2021/04/24 03:55:57;;;;;;;5.43;1.70;;;8.60;66.80;;;;;;4954980;28;20024;-75
2021/04/24 03:58:23;;;;;;;5.70;1.80;;;8.60;67.00;;;;;;4953252;29;20066;-76
2021/04/24 04:00:49;;;;;;;5.90;1.55;;;8.60;67.00;;;;;;4953385;28;20023;-76
2021/04/24 04:03:14;;;;;;;4.25;1.70;;;8.60;67.00;;;;;;4954535;28;20041;-76
2021/04/24 04:05:42;;;;;;;7.07;1.60;;;8.60;67.10;;;;;;4952669;29;20420;-75
2021/04/24 04:08:10;;;;;;;3.97;1.60;;;8.60;67.20;;;;;;4954533;28;20416;-76
2021/04/24 04:10:37;;;;;;;5.72;2.20;;;8.60;67.20;;;;;;4952406;29;20067;-76
2021/04/24 04:13:04;;;;;;;5.97;2.08;;;8.60;67.30;;;;;;4954083;28;20475;-76
2021/04/24 04:15:30;;;;;;;6.18;1.95;;;8.60;67.30;;;;;;4953781;28;20023;-76
2021/04/24 04:18:02;;;;;;;5.10;1.80;;;8.60;67.40;;;;;;4954020;28;20471;-76
2021/04/24 04:20:28;;;;;;;5.25;1.70;;;8.60;67.50;;;;;;4952384;29;20035;-76
2021/04/24 04:22:54;;;;;;;4.38;1.50;;;8.60;67.50;;;;;;4953984;28;20102;-76
2021/04/24 04:25:20;;;;;;;4.30;1.85;;;8.60;67.60;;;;;;4954183;28;20448;-77
2021/04/24 04:27:46;;;;;;;4.68;1.60;;;8.50;67.50;;;;;;4952223;28;20089;-76
2021/04/24 04:30:15;;;;;;;4.32;1.83;;;8.60;67.70;;;;;;4953692;28;20031;-76
2021/04/24 04:32:41;;;;;;;5.28;1.50;;;8.60;67.70;;;;;;4951175;28;20056;-77
2021/04/24 04:35:11;;;;;;;5.43;2.22;;;8.50;67.70;;;;;;4953594;28;20058;-75
2021/04/24 04:37:36;;;;;;;7.82;1.40;;;8.50;67.80;;;;;;4951163;28;20031;-76
2021/04/24 04:40:07;;;;;;;5.13;1.63;;;8.50;67.80;;;;;;4943786;28;20023;-76
2021/04/24 04:42:33;;;;;;;4.57;1.40;;;8.50;67.80;;;;;;4949072;29;20034;-76
2021/04/24 04:44:59;;;;;;;3.78;1.40;;;8.50;67.90;;;;;;4952780;29;20031;-76
2021/04/24 04:47:26;;;;;;;4.07;1.75;;;8.50;67.90;;;;;;4952763;28;20131;-76
2021/04/24 04:49:52;;;;;;;3.35;1.38;;;8.50;68.00;;;;;;4952808;28;20090;-76
2021/04/24 04:52:18;;;;;;;2.70;1.45;;;8.60;68.00;;;;;;4952697;28;20023;-76
2021/04/24 04:54:44;;;;;;;3.00;1.25;;;8.60;68.00;;;;;;4959118;28;20028;-77
2021/04/24 04:57:10;;;;;;;4.13;1.77;;;8.60;68.00;;;;;;4958557;28;20047;-76
2021/04/24 04:59:36;;;;;;;3.60;1.38;;;8.60;68.00;;;;;;4958142;28;20098;-76
2021/04/24 05:02:01;;;;;;;5.00;1.70;;;8.60;68.00;;;;;;4959906;28;20572;-76
2021/04/24 05:04:27;;;;;;;3.95;1.10;;;8.60;67.90;;;;;;4959848;28;20031;-75
2021/04/24 05:06:53;;;;;;;4.22;1.33;;;8.70;68.00;;;;;;4960034;28;20401;-76
2021/04/24 05:09:22;;;;;;;3.13;1.30;;;8.70;68.00;;;;;;4958706;28;20050;-77
2021/04/24 05:11:50;;;;;;;4.65;1.50;;;8.70;68.00;;;;;;4943384;28;20175;-76
2021/04/24 05:14:17;;;;;;;4.82;1.17;;;8.70;68.00;;;;;;4940931;29;20074;-76
2021/04/24 05:16:44;;;;;;;5.53;2.00;;;8.70;68.00;;;;;;4940325;29;20058;-76
2021/04/24 05:19:09;;;;;;;4.53;1.20;;;8.80;68.10;;;;;;4940569;29;20058;-77
2021/04/24 05:21:35;;;;;;;3.72;1.33;;;8.80;68.10;;;;;;4940197;29;20388;-76
2021/04/24 05:24:03;;;;;;;5.05;1.52;;;8.80;68.10;;;;;;4939090;29;20055;-77
2021/04/24 05:26:28;;;;;;;4.95;1.65;;;8.80;68.20;;;;;;4940554;29;20023;-76
2021/04/24 05:28:54;;;;;;;7.80;1.52;;;8.80;68.20;;;;;;4940166;29;20484;-76
2021/04/24 05:31:20;;;;;;;6.38;1.13;;;8.80;68.20;;;;;;4940487;29;20063;-77
2021/04/24 05:33:45;;;;;;;3.50;1.40;;;8.90;68.20;;;;;;4954822;28;20031;-76
2021/04/24 05:36:16;;;;;;;3.20;1.35;;;8.90;68.30;;;;;;4954010;28;20051;-76
2021/04/24 05:38:42;;;;;;;3.53;1.23;;;8.90;68.20;;;;;;4957040;28;20027;-76
2021/04/24 05:41:13;;;;;;;2.97;1.40;;;8.90;68.20;;;;;;4959903;28;20106;-76
2021/04/24 05:43:39;;;;;;;2.75;1.23;;;9.00;68.30;;;;;;4990389;28;20023;-76
2021/04/24 05:46:05;;;;;;;3.05;1.30;;;9.00;68.20;;;;;;4990871;28;20023;-76
2021/04/24 05:48:31;;;;;;;3.60;1.67;;;9.00;68.10;;;;;;4959848;28;20023;-76
2021/04/24 05:50:57;;;;;;;2.75;1.13;;;9.10;68.20;;;;;;4959801;28;20067;-76
2021/04/24 05:53:23;;;;;;;3.05;1.20;;;9.10;68.10;;;;;;4958389;28;20046;-76
2021/04/24 05:55:49;;;;;;;3.47;1.30;;;9.20;68.10;;;;;;4957899;28;20019;-76
2021/04/24 05:58:15;;;;;;;3.95;1.50;;;9.20;68.10;;;;;;4941241;29;20079;-75
2021/04/24 06:00:41;;;;;;;3.15;1.15;;;9.20;68.10;;;;;;4972250;28;20034;-76
2021/04/24 06:03:07;;;;;;;3.70;1.30;;;9.30;68.10;;;;;;4959288;28;20193;-76
2021/04/24 06:05:33;;;;;;;8.35;1.58;;;9.30;68.20;;;;;;4970697;28;20501;-76
2021/04/24 06:07:58;;;;;;;2.63;1.40;;;9.30;68.10;;;;;;4955097;28;20024;-76
2021/04/24 06:10:24;;;;;;;2.63;1.15;;;9.30;68.10;;;;;;4956332;29;20039;-77
2021/04/24 06:12:49;;;;;;;2.95;1.20;;;9.40;68.10;;;;;;4955790;28;20031;-76
2021/04/24 06:15:18;;;;;;;4.15;1.40;;;9.40;68.10;;;;;;4956032;29;20042;-76
2021/04/24 06:17:43;;;;;;;4.35;1.38;;;9.50;68.20;;;;;;4955668;28;20046;-76
2021/04/24 06:20:11;;;;;;;3.63;1.40;;;9.40;68.10;;;;;;4956191;28;20473;-77
2021/04/24 06:22:38;;;;;;;2.60;1.15;;;9.50;68.20;;;;;;4955576;29;20507;-76
2021/04/24 06:25:12;;;;;;;4.47;1.33;;;9.50;68.30;;;;;;4956150;28;20054;-76
2021/04/24 06:27:38;;;;;;;4.57;1.65;;;9.50;68.20;;;;;;4969646;28;20024;-76
2021/04/24 06:30:05;;;;;;;3.47;1.38;;;9.50;68.20;;;;;;4954921;28;20046;-76
2021/04/24 06:32:31;;;;;;;3.42;1.20;;;9.50;68.20;;;;;;4955683;28;20142;-75
2021/04/24 06:34:56;;;;;;;3.13;1.10;;;9.50;68.20;;;;;;4955159;29;20111;-76
2021/04/24 06:37:22;;;;;;;5.95;1.63;;;9.50;68.30;;;;;;4955996;28;20019;-76
2021/04/24 06:39:48;;;;;;;3.42;1.17;;;9.50;68.40;;;;;;4955333;29;20089;-76
2021/04/24 06:42:15;;;;;;;9.93;1.30;;;9.60;68.30;;;;;;4954134;29;20051;-78
2021/04/24 06:44:43;;;;;;;4.13;1.30;;;9.60;68.30;;;;;;4953890;29;20027;-76
2021/04/24 06:47:08;;;;;;;6.15;1.63;;;9.60;68.20;;;;;;4955486;28;20094;-76
2021/04/24 06:49:34;;;;;;;5.55;1.42;;;9.70;68.30;;;;;;4954442;29;20381;-76
2021/04/24 06:52:00;;;;;;;2.92;1.33;;;9.70;68.10;;;;;;4954863;28;20417;-77
2021/04/24 06:54:25;;;;;;;3.97;1.48;;;9.80;68.00;;;;;;4955582;28;20023;-77
2021/04/24 06:56:51;;;;;;;1.45;0.93;;;9.80;67.90;;;;;;4953236;28;20047;-76
2021/04/24 06:59:17;;;;;;;3.17;1.50;;;9.80;67.90;;;;;;4955264;28;20466;-77
2021/04/24 07:01:42;;;;;;;3.85;1.45;;;9.80;67.90;;;;;;4954270;28;20027;-75
2021/04/24 07:04:08;;;;;;;3.67;1.52;;;9.90;67.90;;;;;;4955302;29;20111;-76
2021/04/24 07:06:34;;;;;;;3.35;1.35;;;9.90;67.70;;;;;;4955008;28;20110;-76
2021/04/24 07:09:00;;;;;;;3.03;1.23;;;10.00;67.70;;;;;;4955004;28;20082;-77
2021/04/24 07:11:26;;;;;;;3.25;1.00;;;10.00;67.70;;;;;;4955230;28;20038;-76
2021/04/24 07:13:52;;;;;;;5.45;1.30;;;10.00;67.70;;;;;;4954585;28;20029;-76
2021/04/24 07:16:18;;;;;;;2.05;1.10;;;10.00;68.10;;;;;;4953778;28;20114;-74
2021/04/24 07:18:44;;;;;;;2.55;1.52;;;10.00;67.40;;;;;;4953962;29;20106;-76
2021/04/24 07:21:10;;;;;;;3.60;1.35;;;10.00;67.30;;;;;;4955463;28;20019;-77
2021/04/24 07:23:37;;;;;;;4.38;1.15;;;10.00;67.10;;;;;;4955291;28;20047;-76
2021/04/24 07:26:04;;;;;;;3.80;1.33;;;10.10;66.90;;;;;;4953232;29;20039;-76
2021/04/24 07:28:30;;;;;;;4.40;1.10;;;10.10;66.70;;;;;;4954782;29;20133;-76
2021/04/24 07:30:56;;;;;;;1.70;0.90;;;10.10;66.60;;;;;;4953691;28;20035;-77
2021/04/24 07:33:23;;;;;;;2.40;1.00;;;10.20;66.50;;;;;;4954099;29;20353;-77
2021/04/24 07:35:53;;;;;;;1.38;0.73;;;10.30;66.40;;;;;;4953317;29;20019;-75
2021/04/24 07:38:20;;;;;;;2.20;1.10;;;10.30;66.10;;;;;;4955213;28;20031;-75
2021/04/24 07:40:46;;;;;;;1.73;0.80;;;10.30;65.70;;;;;;4953015;28;20038;-76
2021/04/24 07:43:12;;;;;;;1.95;0.75;;;10.40;65.50;;;;;;4954448;28;20039;-75
2021/04/24 07:45:38;;;;;;;2.83;0.75;;;10.40;65.20;;;;;;4954599;28;20023;-75
2021/04/24 07:48:05;;;;;;;1.58;0.85;;;10.40;64.90;;;;;;4953880;28;20027;-74
2021/04/24 07:50:31;;;;;;;0.85;0.57;;;10.50;64.50;;;;;;4954573;28;20106;-74
2021/04/24 07:52:57;;;;;;;2.22;0.82;;;10.50;64.30;;;;;;4952400;29;20114;-74
2021/04/24 07:55:24;;;;;;;1.90;0.90;;;10.60;64.10;;;;;;4952688;29;20043;-77
2021/04/24 07:57:49;;;;;;;1.52;0.73;;;10.60;63.90;;;;;;4953707;28;20058;-76
2021/04/24 08:00:16;;;;;;;3.28;1.00;;;10.70;63.70;;;;;;4954210;28;20595;-76
2021/04/24 08:02:42;;;;;;;1.80;1.25;;;10.70;63.40;;;;;;4953777;28;20054;-76
2021/04/24 08:05:09;;;;;;;3.97;0.90;;;10.70;63.10;;;;;;4954212;28;20063;-76
2021/04/24 08:07:34;;;;;;;2.45;1.10;;;10.70;62.80;;;;;;4954568;28;20031;-75
2021/04/24 08:10:00;;;;;;;3.00;0.90;;;10.70;62.30;;;;;;4953686;29;20046;-76
2021/04/24 08:12:26;;;;;;;1.00;0.75;;;10.70;62.20;;;;;;4952927;29;20106;-75
2021/04/24 08:14:53;;;;;;;3.33;0.98;;;10.80;62.00;;;;;;4953152;28;20030;-76
2021/04/24 08:17:19;;;;;;;2.47;0.70;;;10.80;61.90;;;;;;4952571;29;20034;-75
2021/04/24 08:19:45;;;;;;;2.70;0.80;;;10.90;61.80;;;;;;4951889;29;20039;-76
2021/04/24 08:22:10;;;;;;;1.58;0.73;;;10.90;61.70;;;;;;4952751;28;20027;-76
2021/04/24 08:24:36;;;;;;;2.05;0.60;;;11.00;61.60;;;;;;4953457;28;20479;-76
2021/04/24 08:27:02;;;;;;;1.25;0.63;;;11.10;61.40;;;;;;4953715;28;20083;-75
2021/04/24 08:29:28;;;;;;;0.45;0.40;;;11.10;60.90;;;;;;4953250;28;20030;-76
2021/04/24 08:31:54;;;;;;;1.23;0.70;;;11.10;60.60;;;;;;4967356;28;20027;-76
2021/04/24 08:34:21;;;;;;;1.45;0.70;;;11.20;60.20;;;;;;4954037;28;20058;-76
2021/04/24 08:36:47;;;;;;;1.17;0.60;;;11.20;60.20;;;;;;4953512;28;20027;-76
2021/04/24 08:39:13;;;;;;;1.05;0.80;;;11.30;60.00;;;;;;4952443;28;20122;-76
2021/04/24 08:41:39;;;;;;;1.48;0.68;;;11.30;59.70;;;;;;4954232;28;20106;-76
2021/04/24 08:44:05;;;;;;;1.63;0.80;;;11.40;59.60;;;;;;4953459;28;20470;-76
2021/04/24 08:46:31;;;;;;;0.90;0.60;;;11.40;59.40;;;;;;4953942;29;20169;-76
2021/04/24 08:48:58;;;;;;;5.05;0.90;;;11.50;59.20;;;;;;4953194;29;20062;-76
2021/04/24 08:51:26;;;;;;;2.05;0.80;;;11.60;58.60;;;;;;4951837;28;20050;-75
2021/04/24 08:53:52;;;;;;;1.25;0.70;;;11.60;58.30;;;;;;4953173;28;20047;-76
2021/04/24 08:56:22;;;;;;;1.02;0.60;;;11.50;58.00;;;;;;4953645;28;20020;-75
2021/04/24 08:58:48;;;;;;;2.33;0.97;;;11.50;58.00;;;;;;4952833;28;20058;-76
2021/04/24 09:01:14;;;;;;;3.55;1.00;;;11.60;58.00;;;;;;4952771;29;20476;-75
2021/04/24 09:03:40;;;;;;;4.05;1.05;;;11.60;57.70;;;;;;4952924;28;20094;-76
2021/04/24 09:06:06;;;;;;;2.22;0.90;;;11.60;57.70;;;;;;4945957;28;20028;-75
2021/04/24 09:08:32;;;;;;;2.75;0.95;;;11.70;57.50;;;;;;4934512;29;20034;-76
2021/04/24 09:11:01;;;;;;;3.10;1.40;;;11.70;57.40;;;;;;4935864;29;20503;-74
2021/04/24 09:13:28;;;;;;;0.85;0.80;;;11.70;57.40;;;;;;4943154;28;20115;-75
2021/04/24 09:15:54;;;;;;;3.85;1.00;;;11.70;57.50;;;;;;4936063;29;20031;-75
2021/04/24 09:18:22;;;;;;;3.58;1.33;;;11.80;57.60;;;;;;4948733;29;20114;-75
2021/04/24 09:21:01;;;;;;;1.27;0.93;;;11.80;57.60;;;;;;4952454;29;20106;-75
2021/04/24 09:23:33;;;;;;;1.63;0.73;;;12.00;57.30;;;;;;4950499;29;20032;-75
2021/04/24 09:26:05;;;;;;;1.38;0.80;;;12.00;57.00;;;;;;4951737;28;20540;-76
2021/04/24 09:28:37;;;;;;;2.08;1.33;;;12.10;56.60;;;;;;4953068;28;20027;-75
2021/04/24 09:31:23;;;;;;;2.05;0.73;;;12.00;56.40;;;;;;4952398;28;20082;-75
2021/04/24 09:33:59;;;;;;;1.70;0.80;;;12.10;56.20;;;;;;4951987;28;20456;-76
2021/04/24 09:36:34;;;;;;;1.75;0.82;;;12.20;56.10;;;;;;4950650;28;20038;-75
2021/04/24 09:39:03;;;;;;;3.20;0.95;;;12.20;55.40;;;;;;4933891;29;20127;-75
2021/04/24 09:41:34;;;;;;;1.08;0.75;;;12.20;55.40;;;;;;4949900;29;20019;-87
2021/04/24 09:44:05;;;;;;;3.28;0.90;;;12.30;55.20;;;;;;4942883;29;20019;-86
2021/04/24 09:46:46;;;;;;;1.20;0.60;;;12.30;55.10;;;;;;4939898;28;20130;-78
2021/04/24 09:49:28;;;;;;;1.00;0.82;;;12.40;55.00;;;;;;4958175;28;20031;-77
2021/04/24 09:51:55;;;;;;;0.55;0.55;;;12.40;54.80;;;;;;4957023;28;20083;-78
2021/04/24 09:54:36;;;;;;;1.52;0.57;;;12.40;54.50;;;;;;4952765;28;20103;-77
2021/04/24 09:57:06;;;;;;;1.23;0.82;;;12.40;54.70;;;;;;4953476;28;20432;-77
2021/04/24 09:59:49;;;;;;;1.10;0.60;;;12.50;54.00;;;;;;4953858;28;20046;-79
2021/04/24 10:02:32;;;;;;;1.58;0.70;;;12.40;54.20;;;;;;4964483;28;20111;-76
2021/04/24 10:05:25;;;;;;;2.78;0.80;;;12.50;54.20;;;;;;4949158;28;20089;-77
2021/04/24 10:07:55;;;;;;;1.73;0.70;;;12.60;54.10;;;;;;4954697;28;20030;-76
2021/04/24 10:10:36;;;;;;;1.95;1.05;;;12.60;54.10;;;;;;4970399;28;20054;-77
2021/04/24 10:13:04;;;;;;;2.78;0.85;;;12.70;53.70;;;;;;4958203;28;20031;-76
2021/04/24 10:15:45;;;;;;;1.60;0.70;;;12.70;53.20;;;;;;4963942;28;20106;-78
2021/04/24 10:18:12;;;;;;;0.73;0.67;;;12.80;52.90;;;;;;4954069;28;20022;-77
2021/04/24 10:20:40;;;;;;;0.60;0.60;;;12.80;52.70;;;;;;4955421;28;20135;-78
2021/04/24 10:23:08;;;;;;;2.60;0.60;;;12.90;52.10;;;;;;4956279;28;20133;-78
2021/04/24 10:25:35;;;;;;;0.57;0.50;;;13.00;52.00;;;;;;4956725;28;20027;-77
2021/04/24 10:28:01;;;;;;;1.73;0.82;;;13.10;51.70;;;;;;4956461;28;20467;-78
2021/04/24 10:30:27;;;;;;;2.55;1.08;;;13.20;51.90;;;;;;4956009;28;20031;-78
2021/04/24 10:32:54;;;;;;;1.90;0.88;;;13.30;51.70;;;;;;4958329;28;20026;-76
2021/04/24 10:35:21;;;;;;;1.15;0.60;;;13.30;51.10;;;;;;4958880;28;20408;-76
2021/04/24 10:37:52;;;;;;;1.75;1.05;;;13.40;50.70;;;;;;4954879;28;20023;-76
2021/04/24 10:40:19;;;;;;;1.50;1.02;;;13.50;50.30;;;;;;4957599;28;20110;-77
2021/04/24 10:42:54;;;;;;;2.53;0.95;;;13.50;50.10;;;;;;4958589;28;20074;-76
2021/04/24 10:45:34;;;;;;;3.60;1.48;;;13.60;49.90;;;;;;4959461;28;20035;-77
2021/04/24 10:48:00;;;;;;;2.85;0.82;;;13.70;49.70;;;;;;4947979;28;20047;-77
2021/04/24 10:50:38;;;;;;;0.50;0.45;;;13.60;49.60;;;;;;4956669;28;20124;-77
2021/04/24 10:53:22;;;;;;;1.02;0.68;;;13.80;49.50;;;;;;4958685;28;20023;-77
2021/04/24 10:55:49;;;;;;;1.95;1.08;;;13.90;49.30;;;;;;4957450;28;20050;-76
2021/04/24 10:58:17;;;;;;;1.70;0.80;;;14.00;49.00;;;;;;4955704;28;20134;-76
2021/04/24 11:00:45;;;;;;;2.85;0.63;;;14.10;49.00;;;;;;4957182;28;20106;-77
2021/04/24 11:03:10;;;;;;;2.97;0.85;;;14.20;48.40;;;;;;4958216;28;20511;-78
2021/04/24 11:05:48;;;;;;;2.10;0.82;;;14.40;48.20;;;;;;4960996;28;20023;-78
2021/04/24 11:08:20;;;;;;;1.85;0.85;;;14.60;47.80;;;;;;4952328;28;20024;-77
2021/04/24 11:10:55;;;;;;;2.33;0.88;;;14.70;47.20;;;;;;4957065;28;20047;-77
2021/04/24 11:13:22;;;;;;;1.85;0.60;;;14.70;46.80;;;;;;4960371;28;20099;-77
2021/04/24 11:15:50;;;;;;;3.58;0.93;;;14.80;47.00;;;;;;4958243;28;20110;-77
2021/04/24 11:18:17;;;;;;;1.95;0.90;;;14.80;46.90;;;;;;4955223;28;20122;-76
2021/04/24 11:20:45;;;;;;;1.92;0.70;;;14.90;46.70;;;;;;4959367;28;20159;-77
2021/04/24 11:23:40;;;;;;;1.15;1.05;;;15.00;46.60;;;;;;4953899;28;20109;-77
2021/04/24 11:26:20;;;;;;;1.88;0.90;;;15.00;46.70;;;;;;4959170;28;20042;-78
2021/04/24 11:29:12;;;;;;;1.42;0.88;;;15.10;46.60;;;;;;4950232;28;20079;-76
2021/04/24 11:32:06;;;;;;;2.25;0.88;;;15.10;46.60;;;;;;4953378;28;20035;-76
2021/04/24 11:34:43;;;;;;;3.33;1.38;;;15.20;46.60;;;;;;4961947;28;20069;-76
2021/04/24 11:37:18;;;;;;;2.65;0.93;;;15.20;46.60;;;;;;4964353;28;20110;-75
2021/04/24 11:40:17;;;;;;;1.38;0.82;;;15.30;46.70;;;;;;4966456;28;20428;-76
2021/04/24 11:42:56;;;;;;;2.72;0.90;;;15.40;46.60;;;;;;4962514;28;20022;-76
2021/04/24 11:45:41;;;;;;;6.25;1.65;;;15.60;46.70;;;;;;4965545;28;20027;-76
2021/04/24 11:48:06;;;;;;;1.77;0.80;;;15.70;46.20;;;;;;4949993;28;20055;-77
2021/04/24 11:50:38;;;;;;;1.88;0.82;;;15.80;46.10;;;;;;4967356;28;20031;-77
2021/04/24 11:53:04;;;;;;;2.75;1.02;;;15.90;46.00;;;;;;4967139;28;20019;-76
2021/04/24 11:55:30;;;;;;;4.40;1.00;;;16.00;46.00;;;;;;4969006;28;20130;-78
2021/04/24 11:58:10;;;;;;;1.73;0.82;;;16.10;46.00;;;;;;4964553;28;20081;-78
2021/04/24 12:00:37;;;;;;;2.17;1.15;;;16.30;46.20;;;;;;4957000;28;20030;-77
2021/04/24 12:03:05;;;;;;;2.38;1.20;;;16.30;45.90;;;;;;4965266;28;20027;-77
2021/04/24 12:05:47;;;;;;;2.30;1.38;;;16.40;46.00;;;;;;4967351;28;20085;-78
2021/04/24 12:08:20;;;;;;;2.30;1.00;;;16.40;45.90;;;;;;4963576;28;20090;-77
2021/04/24 12:10:46;;;;;;;2.45;0.98;;;16.40;45.90;;;;;;4967528;28;20066;-78
2021/04/24 12:13:11;;;;;;;4.47;1.50;;;16.30;46.00;;;;;;4952495;28;20412;-76
2021/04/24 12:15:44;;;;;;;2.83;1.27;;;16.30;46.00;;;;;;4957620;28;20047;-78
2021/04/24 12:18:09;;;;;;;2.10;0.80;;;16.30;45.90;;;;;;4950327;28;20026;-77
2021/04/24 12:20:38;;;;;;;2.42;1.25;;;16.20;45.90;;;;;;4957849;28;20027;-77
2021/04/24 12:23:09;;;;;;;3.88;1.40;;;16.20;46.10;;;;;;4957033;28;20038;-75
2021/04/24 12:25:37;;;;;;;1.45;0.73;;;16.20;46.00;;;;;;4956017;28;20065;-77
2021/04/24 12:28:08;;;;;;;1.75;1.02;;;16.30;46.00;;;;;;4957879;28;20030;-78
2021/04/24 12:30:40;;;;;;;2.13;0.95;;;16.30;46.10;;;;;;4963465;28;20137;-77
2021/04/24 12:33:13;;;;;;;1.80;1.00;;;16.30;46.20;;;;;;4961891;28;20042;-79
2021/04/24 12:35:48;;;;;;;3.30;1.42;;;16.30;46.10;;;;;;4964621;28;20058;-77
2021/04/24 12:38:14;;;;;;;4.15;1.33;;;16.30;46.00;;;;;;4950515;28;20026;-76
2021/04/24 12:40:47;;;;;;;4.30;1.65;;;16.20;46.10;;;;;;4957401;28;20114;-78
2021/04/24 12:43:22;;;;;;;2.10;1.15;;;16.20;46.20;;;;;;4987477;28;20114;-77
2021/04/24 12:45:50;;;;;;;2.78;0.95;;;16.20;46.40;;;;;;4950473;28;20023;-77
2021/04/24 12:48:25;;;;;;;2.17;0.77;;;16.20;46.30;;;;;;4940805;28;20054;-77
2021/04/24 12:50:55;;;;;;;3.03;1.05;;;16.20;46.10;;;;;;4962567;28;20374;-77
2021/04/24 12:53:40;;;;;;;1.77;1.23;;;16.10;46.30;;;;;;4952994;28;20365;-77
2021/04/24 12:56:07;;;;;;;2.97;1.38;;;16.20;46.30;;;;;;4953766;28;20419;-77
2021/04/24 12:58:38;;;;;;;2.35;1.02;;;16.10;46.30;;;;;;4953841;28;20054;-76